sensor_id;sensor_type;location;lat;lon;timestamp;P1;durP1;ratioP1;P2;durP2;ratioP2
75450;SDS011;64029;48.244;9.188;2023-07-30T00:00:53;3.90;;;2.63;;
75450;SDS011;64029;48.244;9.188;2023-07-30T00:03:20;3.87;;;2.80;;
75450;SDS011;64029;48.244;9.188;2023-07-30T00:05:53;3.40;;;3.10;;
75450;SDS011;64029;48.244;9.188;2023-07-30T00:08:21;4.60;;;2.80;;
75450;SDS011;64029;48.244;9.188;2023-07-30T00:10:48;3.70;;;2.83;;
75450;SDS011;64029;48.244;9.188;2023-07-30T00:13:17;2.67;;;2.47;;
75450;SDS011;64029;48.244;9.188;2023-07-30T00:15:45;4.20;;;2.63;;
75450;SDS011;64029;48.244;9.188;2023-07-30T00:18:12;2.80;;;2.60;;
75450;SDS011;64029;48.244;9.188;2023-07-30T00:20:39;7.10;;;3.13;;
75450;SDS011;64029;48.244;9.188;2023-07-30T00:23:06;9.13;;;3.50;;
75450;SDS011;64029;48.244;9.188;2023-07-30T00:25:33;5.17;;;2.90;;
75450;SDS011;64029;48.244;9.188;2023-07-30T00:28:00;2.67;;;2.47;;
75450;SDS011;64029;48.244;9.188;2023-07-30T00:30:28;4.40;;;3.00;;
75450;SDS011;64029;48.244;9.188;2023-07-30T00:32:55;6.23;;;4.10;;
75450;SDS011;64029;48.244;9.188;2023-07-30T00:35:22;5.20;;;2.73;;
75450;SDS011;64029;48.244;9.188;2023-07-30T00:37:49;4.53;;;2.73;;
75450;SDS011;64029;48.244;9.188;2023-07-30T00:40:17;4.00;;;2.37;;
75450;SDS011;64029;48.244;9.188;2023-07-30T00:42:44;3.43;;;2.93;;
75450;SDS011;64029;48.244;9.188;2023-07-30T00:45:11;3.37;;;2.60;;
75450;SDS011;64029;48.244;9.188;2023-07-30T00:47:39;2.97;;;2.67;;
75450;SDS011;64029;48.244;9.188;2023-07-30T00:50:08;6.33;;;2.80;;
75450;SDS011;64029;48.244;9.188;2023-07-30T00:52:36;3.13;;;2.53;;
75450;SDS011;64029;48.244;9.188;2023-07-30T00:55:03;2.87;;;2.57;;
75450;SDS011;64029;48.244;9.188;2023-07-30T00:57:33;4.63;;;2.80;;
75450;SDS011;64029;48.244;9.188;2023-07-30T01:00:02;3.60;;;2.60;;
75450;SDS011;64029;48.244;9.188;2023-07-30T01:02:32;2.70;;;2.30;;
75450;SDS011;64029;48.244;9.188;2023-07-30T01:05:01;4.77;;;3.50;;
75450;SDS011;64029;48.244;9.188;2023-07-30T01:07:28;6.33;;;3.00;;
75450;SDS011;64029;48.244;9.188;2023-07-30T01:09:55;3.20;;;2.90;;
75450;SDS011;64029;48.244;9.188;2023-07-30T01:12:22;5.80;;;2.90;;
75450;SDS011;64029;48.244;9.188;2023-07-30T01:14:50;3.93;;;2.77;;
75450;SDS011;64029;48.244;9.188;2023-07-30T01:17:19;5.90;;;2.90;;
75450;SDS011;64029;48.244;9.188;2023-07-30T01:19:47;2.67;;;2.47;;
75450;SDS011;64029;48.244;9.188;2023-07-30T01:22:16;4.40;;;2.73;;
75450;SDS011;64029;48.244;9.188;2023-07-30T01:24:43;6.87;;;3.07;;
75450;SDS011;64029;48.244;9.188;2023-07-30T01:27:11;6.30;;;2.63;;
75450;SDS011;64029;48.244;9.188;2023-07-30T01:29:45;3.00;;;2.80;;
75450;SDS011;64029;48.244;9.188;2023-07-30T01:32:17;5.50;;;3.00;;
75450;SDS011;64029;48.244;9.188;2023-07-30T01:34:50;4.17;;;2.67;;
75450;SDS011;64029;48.244;9.188;2023-07-30T01:37:21;2.67;;;2.47;;
75450;SDS011;64029;48.244;9.188;2023-07-30T01:39:48;2.50;;;2.30;;
75450;SDS011;64029;48.244;9.188;2023-07-30T01:42:16;3.10;;;2.33;;
75450;SDS011;64029;48.244;9.188;2023-07-30T01:44:45;3.47;;;2.67;;
75450;SDS011;64029;48.244;9.188;2023-07-30T01:47:13;7.20;;;2.70;;
75450;SDS011;64029;48.244;9.188;2023-07-30T01:49:42;3.80;;;2.30;;
75450;SDS011;64029;48.244;9.188;2023-07-30T01:52:09;3.80;;;2.30;;
75450;SDS011;64029;48.244;9.188;2023-07-30T01:54:39;4.40;;;2.67;;
75450;SDS011;64029;48.244;9.188;2023-07-30T01:57:10;5.80;;;2.60;;
75450;SDS011;64029;48.244;9.188;2023-07-30T01:59:38;4.00;;;3.10;;
75450;SDS011;64029;48.244;9.188;2023-07-30T02:02:04;3.43;;;2.30;;
75450;SDS011;64029;48.244;9.188;2023-07-30T02:04:33;2.97;;;2.40;;
75450;SDS011;64029;48.244;9.188;2023-07-30T02:07:03;7.30;;;2.40;;
75450;SDS011;64029;48.244;9.188;2023-07-30T02:09:30;9.40;;;2.97;;
75450;SDS011;64029;48.244;9.188;2023-07-30T02:11:58;2.83;;;2.53;;
75450;SDS011;64029;48.244;9.188;2023-07-30T02:14:25;7.33;;;2.60;;
75450;SDS011;64029;48.244;9.188;2023-07-30T02:16:54;4.10;;;2.47;;
75450;SDS011;64029;48.244;9.188;2023-07-30T02:19:26;5.63;;;3.00;;
75450;SDS011;64029;48.244;9.188;2023-07-30T02:21:54;6.83;;;2.63;;
75450;SDS011;64029;48.244;9.188;2023-07-30T02:24:22;2.97;;;2.00;;
75450;SDS011;64029;48.244;9.188;2023-07-30T02:26:52;3.67;;;2.20;;
75450;SDS011;64029;48.244;9.188;2023-07-30T02:29:28;2.70;;;2.50;;
75450;SDS011;64029;48.244;9.188;2023-07-30T02:31:56;3.00;;;2.37;;
75450;SDS011;64029;48.244;9.188;2023-07-30T02:34:24;4.63;;;3.00;;
75450;SDS011;64029;48.244;9.188;2023-07-30T02:36:54;2.60;;;2.17;;
75450;SDS011;64029;48.244;9.188;2023-07-30T02:39:22;3.40;;;2.13;;
75450;SDS011;64029;48.244;9.188;2023-07-30T02:41:49;4.67;;;2.47;;
75450;SDS011;64029;48.244;9.188;2023-07-30T02:44:18;3.30;;;2.10;;
75450;SDS011;64029;48.244;9.188;2023-07-30T02:46:49;2.67;;;2.47;;
75450;SDS011;64029;48.244;9.188;2023-07-30T02:49:16;3.00;;;2.30;;
75450;SDS011;64029;48.244;9.188;2023-07-30T02:51:45;3.17;;;2.20;;
75450;SDS011;64029;48.244;9.188;2023-07-30T02:54:14;3.20;;;2.63;;
75450;SDS011;64029;48.244;9.188;2023-07-30T02:56:45;6.30;;;2.13;;
75450;SDS011;64029;48.244;9.188;2023-07-30T02:59:12;2.83;;;2.47;;
75450;SDS011;64029;48.244;9.188;2023-07-30T03:01:39;3.40;;;2.50;;
75450;SDS011;64029;48.244;9.188;2023-07-30T03:04:07;5.77;;;2.67;;
75450;SDS011;64029;48.244;9.188;2023-07-30T03:06:34;2.70;;;2.00;;
75450;SDS011;64029;48.244;9.188;2023-07-30T03:09:01;2.80;;;2.20;;
75450;SDS011;64029;48.244;9.188;2023-07-30T03:11:28;2.60;;;2.00;;
75450;SDS011;64029;48.244;9.188;2023-07-30T03:13:55;3.40;;;2.10;;
75450;SDS011;64029;48.244;9.188;2023-07-30T03:16:25;2.87;;;2.30;;
75450;SDS011;64029;48.244;9.188;2023-07-30T03:18:52;5.00;;;2.80;;
75450;SDS011;64029;48.244;9.188;2023-07-30T03:21:22;3.10;;;2.50;;
75450;SDS011;64029;48.244;9.188;2023-07-30T03:23:49;6.03;;;2.60;;
75450;SDS011;64029;48.244;9.188;2023-07-30T03:26:19;3.50;;;2.57;;
75450;SDS011;64029;48.244;9.188;2023-07-30T03:28:46;2.73;;;2.47;;
75450;SDS011;64029;48.244;9.188;2023-07-30T03:31:13;4.37;;;2.57;;
75450;SDS011;64029;48.244;9.188;2023-07-30T03:33:40;2.90;;;2.43;;
75450;SDS011;64029;48.244;9.188;2023-07-30T03:36:08;2.57;;;1.97;;
75450;SDS011;64029;48.244;9.188;2023-07-30T03:38:37;2.60;;;2.23;;
75450;SDS011;64029;48.244;9.188;2023-07-30T03:41:05;2.40;;;1.83;;
75450;SDS011;64029;48.244;9.188;2023-07-30T03:43:33;2.17;;;1.97;;
75450;SDS011;64029;48.244;9.188;2023-07-30T03:46:01;2.73;;;2.23;;
75450;SDS011;64029;48.244;9.188;2023-07-30T03:48:28;3.20;;;1.60;;
75450;SDS011;64029;48.244;9.188;2023-07-30T03:50:58;2.00;;;1.80;;
75450;SDS011;64029;48.244;9.188;2023-07-30T03:53:25;2.83;;;2.20;;
75450;SDS011;64029;48.244;9.188;2023-07-30T03:55:55;3.90;;;2.03;;
75450;SDS011;64029;48.244;9.188;2023-07-30T03:58:21;2.67;;;1.80;;
75450;SDS011;64029;48.244;9.188;2023-07-30T04:00:48;2.30;;;2.10;;
75450;SDS011;64029;48.244;9.188;2023-07-30T04:03:15;2.23;;;1.93;;
75450;SDS011;64029;48.244;9.188;2023-07-30T04:05:44;2.20;;;2.00;;
75450;SDS011;64029;48.244;9.188;2023-07-30T04:08:16;3.63;;;1.73;;
75450;SDS011;64029;48.244;9.188;2023-07-30T04:10:45;2.83;;;1.67;;
75450;SDS011;64029;48.244;9.188;2023-07-30T04:13:14;2.80;;;2.00;;
75450;SDS011;64029;48.244;9.188;2023-07-30T04:15:41;2.43;;;1.70;;
75450;SDS011;64029;48.244;9.188;2023-07-30T04:18:10;2.07;;;1.70;;
75450;SDS011;64029;48.244;9.188;2023-07-30T04:20:37;2.07;;;1.87;;
75450;SDS011;64029;48.244;9.188;2023-07-30T04:23:04;3.43;;;1.87;;
75450;SDS011;64029;48.244;9.188;2023-07-30T04:25:31;2.90;;;1.93;;
75450;SDS011;64029;48.244;9.188;2023-07-30T04:27:58;2.00;;;1.90;;
75450;SDS011;64029;48.244;9.188;2023-07-30T04:30:26;2.50;;;2.30;;
75450;SDS011;64029;48.244;9.188;2023-07-30T04:32:53;4.00;;;2.10;;
75450;SDS011;64029;48.244;9.188;2023-07-30T04:35:23;4.13;;;2.60;;
75450;SDS011;64029;48.244;9.188;2023-07-30T04:37:50;3.83;;;2.03;;
75450;SDS011;64029;48.244;9.188;2023-07-30T04:40:17;2.00;;;1.80;;
75450;SDS011;64029;48.244;9.188;2023-07-30T04:42:44;2.70;;;1.83;;
75450;SDS011;64029;48.244;9.188;2023-07-30T04:45:11;2.90;;;2.03;;
75450;SDS011;64029;48.244;9.188;2023-07-30T04:47:39;2.37;;;2.00;;
75450;SDS011;64029;48.244;9.188;2023-07-30T04:50:06;2.03;;;1.90;;
75450;SDS011;64029;48.244;9.188;2023-07-30T04:52:34;4.13;;;2.60;;
75450;SDS011;64029;48.244;9.188;2023-07-30T04:55:01;3.60;;;1.93;;
75450;SDS011;64029;48.244;9.188;2023-07-30T04:57:27;4.53;;;2.30;;
75450;SDS011;64029;48.244;9.188;2023-07-30T04:59:54;4.33;;;2.63;;
75450;SDS011;64029;48.244;9.188;2023-07-30T05:02:21;3.87;;;2.43;;
75450;SDS011;64029;48.244;9.188;2023-07-30T05:04:50;2.43;;;2.23;;
75450;SDS011;64029;48.244;9.188;2023-07-30T05:07:20;2.60;;;2.40;;
75450;SDS011;64029;48.244;9.188;2023-07-30T05:09:46;3.00;;;2.60;;
75450;SDS011;64029;48.244;9.188;2023-07-30T05:12:13;2.57;;;2.03;;
75450;SDS011;64029;48.244;9.188;2023-07-30T05:14:40;7.20;;;2.60;;
75450;SDS011;64029;48.244;9.188;2023-07-30T05:17:07;2.70;;;2.00;;
75450;SDS011;64029;48.244;9.188;2023-07-30T05:19:34;2.83;;;2.20;;
75450;SDS011;64029;48.244;9.188;2023-07-30T05:22:02;3.60;;;2.37;;
75450;SDS011;64029;48.244;9.188;2023-07-30T05:24:31;4.10;;;2.80;;
75450;SDS011;64029;48.244;9.188;2023-07-30T05:26:57;4.27;;;2.80;;
75450;SDS011;64029;48.244;9.188;2023-07-30T05:29:24;2.97;;;2.67;;
75450;SDS011;64029;48.244;9.188;2023-07-30T05:31:51;4.60;;;2.90;;
75450;SDS011;64029;48.244;9.188;2023-07-30T05:34:18;3.33;;;3.03;;
75450;SDS011;64029;48.244;9.188;2023-07-30T05:36:45;3.13;;;2.90;;
75450;SDS011;64029;48.244;9.188;2023-07-30T05:39:13;4.40;;;3.27;;
75450;SDS011;64029;48.244;9.188;2023-07-30T05:41:40;3.57;;;3.07;;
75450;SDS011;64029;48.244;9.188;2023-07-30T05:44:07;3.03;;;2.70;;
75450;SDS011;64029;48.244;9.188;2023-07-30T05:46:34;3.50;;;3.20;;
75450;SDS011;64029;48.244;9.188;2023-07-30T05:49:01;2.90;;;2.60;;
75450;SDS011;64029;48.244;9.188;2023-07-30T05:51:28;3.80;;;2.60;;
75450;SDS011;64029;48.244;9.188;2023-07-30T05:53:57;3.20;;;2.90;;
75450;SDS011;64029;48.244;9.188;2023-07-30T05:56:26;3.97;;;3.07;;
75450;SDS011;64029;48.244;9.188;2023-07-30T05:58:53;5.33;;;2.77;;
75450;SDS011;64029;48.244;9.188;2023-07-30T06:01:19;3.93;;;3.10;;
75450;SDS011;64029;48.244;9.188;2023-07-30T06:03:46;2.53;;;2.33;;
75450;SDS011;64029;48.244;9.188;2023-07-30T06:06:14;3.20;;;2.90;;
75450;SDS011;64029;48.244;9.188;2023-07-30T06:08:40;3.20;;;2.90;;
75450;SDS011;64029;48.244;9.188;2023-07-30T06:11:07;4.10;;;2.93;;
75450;SDS011;64029;48.244;9.188;2023-07-30T06:13:36;3.67;;;2.77;;
75450;SDS011;64029;48.244;9.188;2023-07-30T06:16:04;2.97;;;2.67;;
75450;SDS011;64029;48.244;9.188;2023-07-30T06:18:31;4.07;;;3.67;;
75450;SDS011;64029;48.244;9.188;2023-07-30T06:20:58;3.90;;;3.50;;
75450;SDS011;64029;48.244;9.188;2023-07-30T06:23:24;3.23;;;2.93;;
75450;SDS011;64029;48.244;9.188;2023-07-30T06:25:51;3.00;;;2.60;;
75450;SDS011;64029;48.244;9.188;2023-07-30T06:28:18;5.57;;;3.50;;
75450;SDS011;64029;48.244;9.188;2023-07-30T06:30:46;3.23;;;2.93;;
75450;SDS011;64029;48.244;9.188;2023-07-30T06:33:13;2.57;;;2.37;;
75450;SDS011;64029;48.244;9.188;2023-07-30T06:35:40;3.33;;;3.03;;
75450;SDS011;64029;48.244;9.188;2023-07-30T06:38:08;3.33;;;2.80;;
75450;SDS011;64029;48.244;9.188;2023-07-30T06:40:36;2.93;;;2.63;;
75450;SDS011;64029;48.244;9.188;2023-07-30T06:43:05;3.10;;;2.70;;
75450;SDS011;64029;48.244;9.188;2023-07-30T06:45:32;3.70;;;2.50;;
75450;SDS011;64029;48.244;9.188;2023-07-30T06:48:00;4.07;;;3.40;;
75450;SDS011;64029;48.244;9.188;2023-07-30T06:50:27;2.70;;;2.47;;
75450;SDS011;64029;48.244;9.188;2023-07-30T06:52:54;2.33;;;2.13;;
75450;SDS011;64029;48.244;9.188;2023-07-30T06:55:20;2.80;;;2.43;;
75450;SDS011;64029;48.244;9.188;2023-07-30T06:57:47;3.03;;;2.83;;
75450;SDS011;64029;48.244;9.188;2023-07-30T07:00:14;2.50;;;2.20;;
75450;SDS011;64029;48.244;9.188;2023-07-30T07:02:46;2.60;;;2.40;;
75450;SDS011;64029;48.244;9.188;2023-07-30T07:05:14;3.53;;;2.37;;
75450;SDS011;64029;48.244;9.188;2023-07-30T07:07:42;3.57;;;2.40;;
75450;SDS011;64029;48.244;9.188;2023-07-30T07:10:09;1.93;;;1.83;;
75450;SDS011;64029;48.244;9.188;2023-07-30T07:12:39;3.20;;;2.10;;
75450;SDS011;64029;48.244;9.188;2023-07-30T07:15:06;2.77;;;2.50;;
75450;SDS011;64029;48.244;9.188;2023-07-30T07:17:33;2.77;;;2.53;;
75450;SDS011;64029;48.244;9.188;2023-07-30T07:20:01;3.60;;;2.00;;
75450;SDS011;64029;48.244;9.188;2023-07-30T07:22:30;2.97;;;2.47;;
75450;SDS011;64029;48.244;9.188;2023-07-30T07:24:57;2.90;;;2.07;;
75450;SDS011;64029;48.244;9.188;2023-07-30T07:27:24;3.93;;;2.03;;
75450;SDS011;64029;48.244;9.188;2023-07-30T07:29:51;5.30;;;4.27;;
75450;SDS011;64029;48.244;9.188;2023-07-30T07:32:18;2.70;;;2.50;;
75450;SDS011;64029;48.244;9.188;2023-07-30T07:34:45;1.97;;;1.60;;
75450;SDS011;64029;48.244;9.188;2023-07-30T07:37:13;4.40;;;2.30;;
75450;SDS011;64029;48.244;9.188;2023-07-30T07:39:43;2.20;;;1.83;;
75450;SDS011;64029;48.244;9.188;2023-07-30T07:42:10;2.17;;;1.90;;
75450;SDS011;64029;48.244;9.188;2023-07-30T07:44:37;3.10;;;1.97;;
75450;SDS011;64029;48.244;9.188;2023-07-30T07:47:04;3.10;;;2.20;;
75450;SDS011;64029;48.244;9.188;2023-07-30T07:49:31;1.97;;;1.70;;
75450;SDS011;64029;48.244;9.188;2023-07-30T07:52:01;9.73;;;2.10;;
75450;SDS011;64029;48.244;9.188;2023-07-30T07:54:28;1.63;;;1.53;;
75450;SDS011;64029;48.244;9.188;2023-07-30T07:56:59;1.93;;;1.73;;
75450;SDS011;64029;48.244;9.188;2023-07-30T07:59:26;1.80;;;1.70;;
75450;SDS011;64029;48.244;9.188;2023-07-30T08:01:53;1.80;;;1.70;;
75450;SDS011;64029;48.244;9.188;2023-07-30T08:04:20;2.20;;;1.73;;
75450;SDS011;64029;48.244;9.188;2023-07-30T08:06:49;1.97;;;1.67;;
75450;SDS011;64029;48.244;9.188;2023-07-30T08:09:16;1.73;;;1.60;;
75450;SDS011;64029;48.244;9.188;2023-07-30T08:11:43;2.73;;;1.97;;
75450;SDS011;64029;48.244;9.188;2023-07-30T08:14:12;1.90;;;1.80;;
75450;SDS011;64029;48.244;9.188;2023-07-30T08:16:38;2.03;;;1.83;;
75450;SDS011;64029;48.244;9.188;2023-07-30T08:19:06;2.57;;;1.97;;
75450;SDS011;64029;48.244;9.188;2023-07-30T08:21:32;1.73;;;1.63;;
75450;SDS011;64029;48.244;9.188;2023-07-30T08:23:59;1.93;;;1.83;;
75450;SDS011;64029;48.244;9.188;2023-07-30T08:26:26;2.63;;;1.90;;
75450;SDS011;64029;48.244;9.188;2023-07-30T08:28:53;2.10;;;1.87;;
75450;SDS011;64029;48.244;9.188;2023-07-30T08:31:22;2.17;;;1.77;;
75450;SDS011;64029;48.244;9.188;2023-07-30T08:33:49;1.73;;;1.63;;
75450;SDS011;64029;48.244;9.188;2023-07-30T08:36:16;3.53;;;1.80;;
75450;SDS011;64029;48.244;9.188;2023-07-30T08:38:43;2.37;;;1.90;;
75450;SDS011;64029;48.244;9.188;2023-07-30T08:41:10;1.87;;;1.70;;
75450;SDS011;64029;48.244;9.188;2023-07-30T08:43:37;4.00;;;1.70;;
75450;SDS011;64029;48.244;9.188;2023-07-30T08:46:04;1.93;;;1.70;;
75450;SDS011;64029;48.244;9.188;2023-07-30T08:48:32;2.53;;;1.73;;
75450;SDS011;64029;48.244;9.188;2023-07-30T08:50:59;2.50;;;1.73;;
75450;SDS011;64029;48.244;9.188;2023-07-30T08:53:27;2.07;;;1.90;;
75450;SDS011;64029;48.244;9.188;2023-07-30T08:55:55;2.10;;;1.80;;
75450;SDS011;64029;48.244;9.188;2023-07-30T08:58:24;2.27;;;2.07;;
75450;SDS011;64029;48.244;9.188;2023-07-30T09:00:53;2.80;;;2.00;;
75450;SDS011;64029;48.244;9.188;2023-07-30T09:03:22;2.53;;;2.33;;
75450;SDS011;64029;48.244;9.188;2023-07-30T09:05:52;2.47;;;1.90;;
75450;SDS011;64029;48.244;9.188;2023-07-30T09:08:18;2.47;;;2.00;;
75450;SDS011;64029;48.244;9.188;2023-07-30T09:10:47;3.00;;;2.00;;
75450;SDS011;64029;48.244;9.188;2023-07-30T09:13:20;1.93;;;1.80;;
75450;SDS011;64029;48.244;9.188;2023-07-30T09:15:48;2.50;;;2.30;;
75450;SDS011;64029;48.244;9.188;2023-07-30T09:18:16;2.60;;;2.37;;
75450;SDS011;64029;48.244;9.188;2023-07-30T09:20:45;2.20;;;2.00;;
75450;SDS011;64029;48.244;9.188;2023-07-30T09:23:14;2.50;;;2.30;;
75450;SDS011;64029;48.244;9.188;2023-07-30T09:25:41;2.70;;;2.20;;
75450;SDS011;64029;48.244;9.188;2023-07-30T09:28:08;2.07;;;1.87;;
75450;SDS011;64029;48.244;9.188;2023-07-30T09:30:36;2.10;;;1.90;;
75450;SDS011;64029;48.244;9.188;2023-07-30T09:33:03;2.33;;;1.90;;
75450;SDS011;64029;48.244;9.188;2023-07-30T09:35:32;2.90;;;2.17;;
75450;SDS011;64029;48.244;9.188;2023-07-30T09:38:00;3.83;;;2.80;;
75450;SDS011;64029;48.244;9.188;2023-07-30T09:40:34;4.07;;;2.67;;
75450;SDS011;64029;48.244;9.188;2023-07-30T09:43:04;2.63;;;2.40;;
75450;SDS011;64029;48.244;9.188;2023-07-30T09:45:32;3.30;;;2.30;;
75450;SDS011;64029;48.244;9.188;2023-07-30T09:48:01;2.10;;;1.90;;
75450;SDS011;64029;48.244;9.188;2023-07-30T09:50:29;2.57;;;2.37;;
75450;SDS011;64029;48.244;9.188;2023-07-30T09:52:57;3.00;;;2.33;;
75450;SDS011;64029;48.244;9.188;2023-07-30T09:55:24;2.20;;;2.00;;
75450;SDS011;64029;48.244;9.188;2023-07-30T09:57:53;2.30;;;2.10;;
75450;SDS011;64029;48.244;9.188;2023-07-30T10:00:20;2.40;;;1.97;;
75450;SDS011;64029;48.244;9.188;2023-07-30T10:02:48;5.03;;;2.13;;
75450;SDS011;64029;48.244;9.188;2023-07-30T10:05:16;2.07;;;1.90;;
75450;SDS011;64029;48.244;9.188;2023-07-30T10:07:45;2.00;;;1.80;;
75450;SDS011;64029;48.244;9.188;2023-07-30T10:10:15;2.20;;;2.00;;
75450;SDS011;64029;48.244;9.188;2023-07-30T10:12:44;2.70;;;2.10;;
75450;SDS011;64029;48.244;9.188;2023-07-30T10:15:14;2.00;;;1.90;;
75450;SDS011;64029;48.244;9.188;2023-07-30T10:17:46;1.83;;;1.73;;
75450;SDS011;64029;48.244;9.188;2023-07-30T10:20:20;2.10;;;1.87;;
75450;SDS011;64029;48.244;9.188;2023-07-30T10:22:51;2.37;;;1.80;;
75450;SDS011;64029;48.244;9.188;2023-07-30T10:25:20;3.57;;;2.33;;
75450;SDS011;64029;48.244;9.188;2023-07-30T10:27:49;1.93;;;1.80;;
75450;SDS011;64029;48.244;9.188;2023-07-30T10:30:19;1.77;;;1.67;;
75450;SDS011;64029;48.244;9.188;2023-07-30T10:32:59;4.20;;;1.50;;
75450;SDS011;64029;48.244;9.188;2023-07-30T10:35:34;2.43;;;2.10;;
75450;SDS011;64029;48.244;9.188;2023-07-30T10:38:14;3.27;;;1.70;;
75450;SDS011;64029;48.244;9.188;2023-07-30T10:40:42;1.80;;;1.70;;
75450;SDS011;64029;48.244;9.188;2023-07-30T10:43:27;1.80;;;1.70;;
75450;SDS011;64029;48.244;9.188;2023-07-30T10:45:56;2.90;;;2.20;;
75450;SDS011;64029;48.244;9.188;2023-07-30T10:48:29;2.30;;;2.10;;
75450;SDS011;64029;48.244;9.188;2023-07-30T10:50:59;1.60;;;1.50;;
75450;SDS011;64029;48.244;9.188;2023-07-30T10:53:26;2.10;;;1.80;;
75450;SDS011;64029;48.244;9.188;2023-07-30T10:55:53;2.10;;;1.90;;
75450;SDS011;64029;48.244;9.188;2023-07-30T10:58:24;1.97;;;1.50;;
75450;SDS011;64029;48.244;9.188;2023-07-30T11:00:52;2.57;;;2.00;;
75450;SDS011;64029;48.244;9.188;2023-07-30T11:03:20;1.93;;;1.77;;
75450;SDS011;64029;48.244;9.188;2023-07-30T11:05:50;1.97;;;1.77;;
75450;SDS011;64029;48.244;9.188;2023-07-30T11:08:16;1.70;;;1.60;;
75450;SDS011;64029;48.244;9.188;2023-07-30T11:10:45;10.03;;;2.30;;
75450;SDS011;64029;48.244;9.188;2023-07-30T11:13:13;2.00;;;1.80;;
75450;SDS011;64029;48.244;9.188;2023-07-30T11:15:40;2.37;;;1.70;;
75450;SDS011;64029;48.244;9.188;2023-07-30T11:18:08;1.77;;;1.60;;
75450;SDS011;64029;48.244;9.188;2023-07-30T11:20:37;1.80;;;1.70;;
75450;SDS011;64029;48.244;9.188;2023-07-30T11:23:16;2.20;;;1.77;;
75450;SDS011;64029;48.244;9.188;2023-07-30T11:25:50;2.80;;;2.17;;
75450;SDS011;64029;48.244;9.188;2023-07-30T11:28:27;3.90;;;2.27;;
75450;SDS011;64029;48.244;9.188;2023-07-30T11:30:55;3.70;;;2.10;;
75450;SDS011;64029;48.244;9.188;2023-07-30T11:33:27;2.63;;;1.90;;
75450;SDS011;64029;48.244;9.188;2023-07-30T11:35:56;1.93;;;1.57;;
75450;SDS011;64029;48.244;9.188;2023-07-30T11:38:23;1.77;;;1.67;;
75450;SDS011;64029;48.244;9.188;2023-07-30T11:40:51;2.63;;;2.10;;
75450;SDS011;64029;48.244;9.188;2023-07-30T11:43:19;2.20;;;2.00;;
75450;SDS011;64029;48.244;9.188;2023-07-30T11:45:47;2.13;;;1.90;;
75450;SDS011;64029;48.244;9.188;2023-07-30T11:48:14;2.40;;;1.93;;
75450;SDS011;64029;48.244;9.188;2023-07-30T11:50:44;2.00;;;1.80;;
75450;SDS011;64029;48.244;9.188;2023-07-30T11:53:13;2.20;;;2.00;;
75450;SDS011;64029;48.244;9.188;2023-07-30T11:55:41;2.37;;;1.97;;
75450;SDS011;64029;48.244;9.188;2023-07-30T11:58:09;2.63;;;2.30;;
75450;SDS011;64029;48.244;9.188;2023-07-30T12:00:37;2.00;;;1.73;;
75450;SDS011;64029;48.244;9.188;2023-07-30T12:03:05;2.23;;;1.97;;
75450;SDS011;64029;48.244;9.188;2023-07-30T12:05:37;1.80;;;1.70;;
75450;SDS011;64029;48.244;9.188;2023-07-30T12:08:12;2.67;;;2.33;;
75450;SDS011;64029;48.244;9.188;2023-07-30T12:10:45;2.20;;;2.00;;
75450;SDS011;64029;48.244;9.188;2023-07-30T12:13:18;1.73;;;1.60;;
75450;SDS011;64029;48.244;9.188;2023-07-30T12:15:50;2.30;;;2.10;;
75450;SDS011;64029;48.244;9.188;2023-07-30T12:18:17;2.00;;;1.80;;
75450;SDS011;64029;48.244;9.188;2023-07-30T12:20:44;3.30;;;1.80;;
75450;SDS011;64029;48.244;9.188;2023-07-30T12:23:11;1.70;;;1.60;;
75450;SDS011;64029;48.244;9.188;2023-07-30T12:25:40;2.20;;;2.00;;
75450;SDS011;64029;48.244;9.188;2023-07-30T12:28:07;2.20;;;1.90;;
75450;SDS011;64029;48.244;9.188;2023-07-30T12:30:34;2.23;;;2.00;;
75450;SDS011;64029;48.244;9.188;2023-07-30T12:33:01;1.80;;;1.70;;
75450;SDS011;64029;48.244;9.188;2023-07-30T12:35:29;2.37;;;2.03;;
75450;SDS011;64029;48.244;9.188;2023-07-30T12:37:56;2.00;;;1.73;;
75450;SDS011;64029;48.244;9.188;2023-07-30T12:40:24;3.30;;;1.80;;
75450;SDS011;64029;48.244;9.188;2023-07-30T12:42:52;2.20;;;1.90;;
75450;SDS011;64029;48.244;9.188;2023-07-30T12:45:19;1.90;;;1.80;;
75450;SDS011;64029;48.244;9.188;2023-07-30T12:47:46;2.40;;;1.97;;
75450;SDS011;64029;48.244;9.188;2023-07-30T12:50:13;2.10;;;1.90;;
75450;SDS011;64029;48.244;9.188;2023-07-30T12:52:40;2.77;;;1.93;;
75450;SDS011;64029;48.244;9.188;2023-07-30T12:55:07;2.50;;;2.17;;
75450;SDS011;64029;48.244;9.188;2023-07-30T12:57:34;2.27;;;2.00;;
75450;SDS011;64029;48.244;9.188;2023-07-30T13:00:02;2.60;;;2.07;;
75450;SDS011;64029;48.244;9.188;2023-07-30T13:02:30;2.30;;;1.90;;
75450;SDS011;64029;48.244;9.188;2023-07-30T13:04:58;3.03;;;1.80;;
75450;SDS011;64029;48.244;9.188;2023-07-30T13:07:25;3.17;;;2.10;;
75450;SDS011;64029;48.244;9.188;2023-07-30T13:10:01;2.53;;;2.23;;
75450;SDS011;64029;48.244;9.188;2023-07-30T13:12:33;5.23;;;2.13;;
75450;SDS011;64029;48.244;9.188;2023-07-30T13:15:01;2.70;;;1.87;;
75450;SDS011;64029;48.244;9.188;2023-07-30T13:17:29;2.07;;;1.80;;
75450;SDS011;64029;48.244;9.188;2023-07-30T13:19:56;3.10;;;2.00;;
75450;SDS011;64029;48.244;9.188;2023-07-30T13:22:24;3.10;;;2.37;;
75450;SDS011;64029;48.244;9.188;2023-07-30T13:24:51;2.60;;;2.27;;
75450;SDS011;64029;48.244;9.188;2023-07-30T13:27:20;2.53;;;2.13;;
75450;SDS011;64029;48.244;9.188;2023-07-30T13:29:47;2.50;;;2.23;;
75450;SDS011;64029;48.244;9.188;2023-07-30T13:32:15;5.10;;;2.10;;
75450;SDS011;64029;48.244;9.188;2023-07-30T13:34:43;3.57;;;2.23;;
75450;SDS011;64029;48.244;9.188;2023-07-30T13:37:10;4.47;;;2.03;;
75450;SDS011;64029;48.244;9.188;2023-07-30T13:39:36;2.40;;;2.00;;
75450;SDS011;64029;48.244;9.188;2023-07-30T13:42:04;2.50;;;1.97;;
75450;SDS011;64029;48.244;9.188;2023-07-30T13:44:31;2.97;;;2.67;;
75450;SDS011;64029;48.244;9.188;2023-07-30T13:46:57;2.20;;;2.00;;
75450;SDS011;64029;48.244;9.188;2023-07-30T13:49:26;3.30;;;2.13;;
75450;SDS011;64029;48.244;9.188;2023-07-30T13:51:53;5.10;;;2.20;;
75450;SDS011;64029;48.244;9.188;2023-07-30T13:54:19;3.73;;;1.87;;
75450;SDS011;64029;48.244;9.188;2023-07-30T13:56:46;2.17;;;1.97;;
75450;SDS011;64029;48.244;9.188;2023-07-30T13:59:13;2.80;;;1.97;;
75450;SDS011;64029;48.244;9.188;2023-07-30T14:01:40;2.43;;;2.13;;
75450;SDS011;64029;48.244;9.188;2023-07-30T14:04:07;4.30;;;2.00;;
75450;SDS011;64029;48.244;9.188;2023-07-30T14:06:35;3.70;;;2.20;;
75450;SDS011;64029;48.244;9.188;2023-07-30T14:09:02;2.23;;;1.90;;
75450;SDS011;64029;48.244;9.188;2023-07-30T14:11:29;2.47;;;2.10;;
75450;SDS011;64029;48.244;9.188;2023-07-30T14:13:57;2.47;;;2.27;;
75450;SDS011;64029;48.244;9.188;2023-07-30T14:16:24;2.80;;;2.50;;
75450;SDS011;64029;48.244;9.188;2023-07-30T14:18:51;2.83;;;2.50;;
75450;SDS011;64029;48.244;9.188;2023-07-30T14:21:17;3.83;;;2.30;;
75450;SDS011;64029;48.244;9.188;2023-07-30T14:23:46;2.43;;;2.23;;
75450;SDS011;64029;48.244;9.188;2023-07-30T14:26:13;4.00;;;2.63;;
75450;SDS011;64029;48.244;9.188;2023-07-30T14:28:40;2.83;;;2.40;;
75450;SDS011;64029;48.244;9.188;2023-07-30T14:31:07;2.53;;;2.23;;
75450;SDS011;64029;48.244;9.188;2023-07-30T14:33:33;2.70;;;2.13;;
75450;SDS011;64029;48.244;9.188;2023-07-30T14:36:04;4.07;;;2.27;;
75450;SDS011;64029;48.244;9.188;2023-07-30T14:38:31;5.03;;;2.90;;
75450;SDS011;64029;48.244;9.188;2023-07-30T14:41:00;2.50;;;2.30;;
75450;SDS011;64029;48.244;9.188;2023-07-30T14:43:28;3.80;;;2.30;;
75450;SDS011;64029;48.244;9.188;2023-07-30T14:45:55;2.90;;;2.30;;
75450;SDS011;64029;48.244;9.188;2023-07-30T14:48:22;3.60;;;2.30;;
75450;SDS011;64029;48.244;9.188;2023-07-30T14:50:49;2.70;;;2.50;;
75450;SDS011;64029;48.244;9.188;2023-07-30T14:53:15;2.80;;;2.30;;